createdAt,value
2022-12-23T00:02:20.172Z,32.40
2022-12-23T00:07:24.458Z,38.53
2022-12-23T00:12:44.607Z,34.15
2022-12-23T00:17:47.388Z,33.03
2022-12-23T00:23:06.822Z,38.83
2022-12-23T00:28:11.656Z,34.67
2022-12-23T00:33:15.563Z,38.45
2022-12-23T00:38:41.259Z,38.20
2022-12-23T00:43:44.022Z,34.50
2022-12-23T00:49:12.569Z,35.70
2022-12-23T00:54:17.588Z,37.45
2022-12-23T00:59:20.934Z,45.38
2022-12-23T01:04:41.046Z,37.53
2022-12-23T01:09:45.383Z,39.10
2022-12-23T01:14:48.143Z,37.90
2022-12-23T01:19:51.384Z,37.40
2022-12-23T01:24:55.495Z,41.38
2022-12-23T01:29:58.257Z,41.40
2022-12-23T01:35:00.978Z,39.30
2022-12-23T01:40:05.944Z,42.83
2022-12-23T01:45:15.522Z,41.00
2022-12-23T01:50:23.582Z,41.67
2022-12-23T01:55:31.530Z,44.20
2022-12-23T02:00:51.864Z,47.10
2022-12-23T02:06:14.988Z,45.90
2022-12-23T02:11:32.919Z,50.85
2022-12-23T02:16:43.472Z,49.43
2022-12-23T02:22:18.158Z,55.83
2022-12-23T02:27:28.966Z,53.20
2022-12-23T02:32:44.531Z,50.30
2022-12-23T02:37:54.634Z,49.05
2022-12-23T02:43:03.049Z,54.13
2022-12-23T02:53:18.649Z,50.83
2022-12-23T02:58:25.900Z,49.67
2022-12-23T03:03:30.491Z,47.30
2022-12-23T03:08:45.066Z,51.45
2022-12-23T03:14:09.159Z,49.20
2022-12-23T03:19:22.722Z,48.85
2022-12-23T03:24:33.677Z,51.28
2022-12-23T03:29:42.643Z,47.20
2022-12-23T03:34:51.062Z,54.92
2022-12-23T03:39:56.221Z,53.08
2022-12-23T03:50:28.717Z,61.03
2022-12-23T03:55:35.522Z,60.75
2022-12-23T04:00:46.163Z,62.25
2022-12-23T04:05:54.536Z,65.55
2022-12-23T04:10:58.022Z,67.68
2022-12-23T04:16:01.447Z,64.00
2022-12-23T04:21:06.090Z,62.95
2022-12-23T04:26:08.844Z,63.90
2022-12-23T04:31:11.727Z,62.13
2022-12-23T04:36:16.265Z,61.35
2022-12-23T04:41:19.000Z,65.88
2022-12-23T04:46:21.983Z,55.72
2022-12-23T04:51:26.149Z,56.88
2022-12-23T04:56:28.882Z,55.03
2022-12-23T05:01:31.693Z,51.45
2022-12-23T05:06:36.130Z,55.88
2022-12-23T05:11:42.370Z,70.70
2022-12-23T05:16:45.552Z,67.22
2022-12-23T05:21:49.697Z,70.75
2022-12-23T05:26:59.439Z,69.97
2022-12-23T05:32:03.032Z,74.90
2022-12-23T05:37:07.966Z,77.22
2022-12-23T05:42:10.747Z,84.70
2022-12-23T05:47:13.451Z,82.25
2022-12-23T05:52:17.515Z,87.43
2022-12-23T05:57:20.348Z,94.07
2022-12-23T06:02:25.093Z,84.15
2022-12-23T06:07:29.351Z,86.28
2022-12-23T06:12:32.413Z,79.47
2022-12-23T06:17:35.164Z,78.22
2022-12-23T06:29:03.641Z,86.55
2022-12-23T06:34:41.641Z,126.18
2022-12-23T06:39:48.311Z,136.02
2022-12-23T06:44:51.350Z,121.28
2022-12-23T06:49:56.508Z,120.97
2022-12-23T06:55:13.357Z,105.18
2022-12-23T07:00:17.449Z,134.15
2022-12-23T07:05:20.405Z,92.30
2022-12-23T07:10:24.585Z,64.32
2022-12-23T07:15:27.351Z,67.05
2022-12-23T07:20:30.282Z,76.40
2022-12-23T07:25:34.490Z,67.47
2022-12-23T07:30:37.603Z,60.03
2022-12-23T07:35:42.172Z,63.00
2022-12-23T07:40:49.632Z,57.25
2022-12-23T07:45:59.268Z,52.78
2022-12-23T07:51:03.194Z,61.22
2022-12-23T07:56:08.068Z,59.55
2022-12-23T08:01:11.113Z,59.53
2022-12-23T08:06:16.239Z,96.65
2022-12-23T08:11:20.561Z,65.30
2022-12-23T08:16:23.635Z,73.75
2022-12-23T08:21:26.428Z,64.35
2022-12-23T08:26:30.502Z,77.97
2022-12-23T08:31:33.506Z,54.45
2022-12-23T08:36:37.588Z,85.55
2022-12-23T08:41:44.491Z,55.28
2022-12-23T08:46:47.355Z,75.57
2022-12-23T08:51:50.402Z,58.67
2022-12-23T08:56:54.563Z,70.50
2022-12-23T09:01:59.781Z,103.80
2022-12-23T09:07:02.719Z,75.47
2022-12-23T09:12:07.155Z,55.17
2022-12-23T09:17:09.983Z,67.68
2022-12-23T09:22:13.617Z,59.22
2022-12-23T09:27:17.905Z,57.58
2022-12-23T09:32:20.738Z,63.45
2022-12-23T09:37:23.648Z,52.00
2022-12-23T09:42:45.467Z,51.33
2022-12-23T09:47:49.669Z,55.85
2022-12-23T09:53:00.582Z,54.53
2022-12-23T09:58:10.802Z,51.75
2022-12-23T10:03:21.524Z,51.95
2022-12-23T10:08:32.398Z,48.78
2022-12-23T10:13:41.007Z,52.50
2022-12-23T10:18:51.254Z,52.03
2022-12-23T10:23:55.474Z,47.08
2022-12-23T10:29:10.904Z,43.60
2022-12-23T10:34:22.150Z,38.63
2022-12-23T10:39:32.646Z,38.80
2022-12-23T10:44:58.877Z,33.33
2022-12-23T10:50:14.306Z,35.75
2022-12-23T10:55:28.555Z,32.85
2022-12-23T11:00:41.035Z,33.38
2022-12-23T11:05:45.503Z,31.92
2022-12-23T11:10:49.230Z,34.90
2022-12-23T11:15:53.677Z,36.83
2022-12-23T11:21:04.336Z,36.95
2022-12-23T11:26:10.026Z,37.88
2022-12-23T11:31:16.151Z,38.90
2022-12-23T11:36:25.357Z,41.72
2022-12-23T11:41:30.661Z,37.28
2022-12-23T11:46:36.056Z,40.92
2022-12-23T11:51:39.700Z,38.78
2022-12-23T11:56:42.997Z,35.50
2022-12-23T12:01:50.002Z,32.88
2022-12-23T12:06:56.628Z,30.70
2022-12-23T12:12:06.597Z,30.73
2022-12-23T12:17:19.025Z,29.05
2022-12-23T12:22:32.241Z,33.95
2022-12-23T12:27:39.303Z,28.77
2022-12-23T12:32:51.553Z,30.48
2022-12-23T12:37:58.500Z,36.13
2022-12-23T12:43:12.857Z,34.97
2022-12-23T12:48:33.103Z,31.30
2022-12-23T12:53:39.039Z,32.33
2022-12-23T12:58:45.593Z,31.77
2022-12-23T13:04:08.716Z,31.60
2022-12-23T13:09:23.110Z,27.08
2022-12-23T13:14:35.959Z,27.88
2022-12-23T13:19:48.047Z,31.23
2022-12-23T13:24:58.612Z,26.10
2022-12-23T13:30:06.176Z,24.50
2022-12-23T13:35:26.554Z,29.47
2022-12-23T13:40:38.873Z,24.23
2022-12-23T13:45:43.659Z,28.35
2022-12-23T13:50:56.586Z,30.88
2022-12-23T13:56:12.601Z,24.52
2022-12-23T14:01:34.139Z,25.60
2022-12-23T14:06:45.881Z,22.27
2022-12-23T14:11:48.862Z,26.85
2022-12-23T14:17:05.060Z,23.17
2022-12-23T14:22:25.935Z,25.65
2022-12-23T14:27:47.332Z,28.48
2022-12-23T14:32:52.883Z,25.08
2022-12-23T14:38:30.898Z,25.48
2022-12-23T14:43:55.600Z,24.13
2022-12-23T14:49:40.111Z,26.73
2022-12-23T14:54:55.282Z,25.75
2022-12-23T15:00:10.786Z,29.67
2022-12-23T15:05:14.753Z,32.53
2022-12-23T15:10:21.280Z,35.13
2022-12-23T15:15:28.033Z,31.77
2022-12-23T15:20:30.830Z,31.10
2022-12-23T15:25:37.760Z,34.25
2022-12-23T15:30:50.734Z,38.17
2022-12-23T15:35:53.782Z,29.48
2022-12-23T15:41:02.496Z,28.00
2022-12-23T15:46:15.578Z,33.92
2022-12-23T15:51:57.822Z,34.08
2022-12-23T15:56:51.361Z,36.03
2022-12-23T16:01:56.205Z,31.30
2022-12-23T16:06:59.199Z,35.10
2022-12-23T16:12:20.607Z,45.33
2022-12-23T16:17:31.387Z,37.65
2022-12-23T16:22:37.891Z,39.15
2022-12-23T16:27:43.866Z,43.92
2022-12-23T16:32:51.948Z,46.70
2022-12-23T16:37:58.948Z,38.30
2022-12-23T16:43:01.763Z,38.15
2022-12-23T16:48:18.167Z,36.00
2022-12-23T16:53:22.218Z,40.78
2022-12-23T16:58:25.711Z,41.63
2022-12-23T17:03:30.001Z,40.10
2022-12-23T17:08:35.481Z,40.88
2022-12-23T17:13:39.822Z,38.50
2022-12-23T17:18:44.010Z,38.13
2022-12-23T17:23:47.037Z,41.95
2022-12-23T17:28:51.662Z,46.08
2022-12-23T17:33:56.872Z,44.97
2022-12-23T17:38:59.779Z,41.60
2022-12-23T17:44:02.900Z,40.63
2022-12-23T17:49:07.051Z,42.92
2022-12-23T17:54:21.463Z,44.17
2022-12-23T17:59:24.716Z,44.05
2022-12-23T18:04:29.031Z,39.97
2022-12-23T18:09:33.167Z,45.53
2022-12-23T18:14:36.027Z,40.85
2022-12-23T18:19:40.269Z,46.33
2022-12-23T18:24:43.560Z,40.40
2022-12-23T18:29:46.970Z,39.35
2022-12-23T18:34:51.688Z,40.55
2022-12-23T18:39:54.541Z,40.55
2022-12-23T18:44:57.306Z,43.78
2022-12-23T18:50:01.510Z,42.78
2022-12-23T18:55:06.598Z,45.22
2022-12-23T19:00:15.038Z,41.72
2022-12-23T19:10:26.382Z,45.78
2022-12-23T19:15:29.442Z,44.63
2022-12-23T19:20:33.699Z,44.45
2022-12-23T19:25:36.935Z,40.85
2022-12-23T19:30:42.576Z,41.20
2022-12-23T19:35:46.848Z,44.38
2022-12-23T19:40:57.627Z,42.13
2022-12-23T19:46:01.917Z,44.45
2022-12-23T19:51:08.388Z,48.67
2022-12-23T19:56:13.198Z,44.95
2022-12-23T20:01:18.319Z,43.20
2022-12-23T20:06:25.358Z,46.00
2022-12-23T20:11:42.336Z,45.35
2022-12-23T20:16:49.342Z,41.88
2022-12-23T20:21:53.799Z,47.42
2022-12-23T20:26:56.733Z,43.08
2022-12-23T20:31:59.475Z,40.33
2022-12-23T20:37:04.601Z,46.67
2022-12-23T20:42:07.561Z,43.80
2022-12-23T20:47:10.750Z,39.03
2022-12-23T20:52:15.090Z,39.67
2022-12-23T20:57:17.904Z,40.95
2022-12-23T21:02:21.392Z,33.72
2022-12-23T21:07:26.585Z,38.47
2022-12-23T21:12:29.491Z,33.75
2022-12-23T21:17:33.719Z,29.30
2022-12-23T21:22:37.988Z,27.42
2022-12-23T21:27:42.465Z,31.33
2022-12-23T21:32:45.256Z,29.35
2022-12-23T21:37:49.407Z,31.88
2022-12-23T21:42:52.287Z,32.00
2022-12-23T21:47:55.571Z,30.10
2022-12-23T21:52:59.722Z,32.13
2022-12-23T21:58:02.562Z,31.02
2022-12-23T22:03:05.436Z,32.53
2022-12-23T22:08:09.782Z,39.20
2022-12-23T22:13:15.874Z,34.65
2022-12-23T22:18:18.965Z,30.50
2022-12-23T22:23:23.196Z,34.63
2022-12-23T22:28:26.533Z,33.40
2022-12-23T22:33:32.795Z,33.15
2022-12-23T22:38:36.893Z,30.50
2022-12-23T22:43:39.731Z,31.13
2022-12-23T22:48:42.479Z,32.47
2022-12-23T22:53:47.437Z,40.67
2022-12-23T22:58:50.858Z,31.35
2022-12-23T23:03:57.191Z,39.85
2022-12-23T23:09:02.202Z,40.75
2022-12-23T23:14:05.222Z,39.33
2022-12-23T23:19:09.238Z,37.88
2022-12-23T23:24:13.560Z,32.88
2022-12-23T23:29:16.519Z,34.25
2022-12-23T23:34:19.359Z,31.52
2022-12-23T23:39:23.555Z,34.80
2022-12-23T23:44:26.342Z,34.92
2022-12-23T23:49:29.239Z,33.45
2022-12-23T23:54:33.439Z,35.85
2022-12-23T23:59:36.218Z,31.67
